Time;durP1;ratioP1;P1;durP2;ratioP2;P2;SDS_P1;SDS_P2;PMS_P1;PMS_P2;Temp;Humidity;BMP_temperature;BMP_pressure;BME280_temperature;BME280_humidity;BME280_pressure;Samples;Min_cycle;Max_cycle;Signal;HPM_P1;HPM_P2
2023/02/17 00:00:44;;;;;;;;;;;-1.70;99.90;;;;;;4161991;28;20266;-63
2023/02/17 00:02:45;;;;;;;;;;;-1.80;99.90;;;;;;4161610;28;19955;-64
2023/02/17 00:04:46;;;;;;;63.00;28.50;;;-1.80;99.90;;;;;;4161775;28;19913;-63
2023/02/17 00:06:48;;;;;;;72.37;30.50;;;-1.80;99.90;;;;;;4160549;28;20025;-63
2023/02/17 00:08:49;;;;;;;61.67;28.43;;;-1.70;99.90;;;;;;4160643;28;20263;-64
2023/02/17 00:10:56;;;;;;;68.80;29.50;;;-1.80;99.90;;;;;;4160777;28;20317;-77
2023/02/17 00:12:57;;;;;;;63.43;29.30;;;-1.70;99.90;;;;;;4161345;28;20298;-63
2023/02/17 00:14:58;;;;;;;65.50;29.23;;;-1.70;99.90;;;;;;4160264;28;20356;-63
2023/02/17 00:16:59;;;;;;;69.90;30.03;;;-1.70;99.90;;;;;;4161663;28;20657;-67
2023/02/17 00:19:01;;;;;;;62.47;29.63;;;-1.70;99.90;;;;;;4160462;28;20734;-64
2023/02/17 00:21:17;;;;;;;63.43;29.93;;;-1.70;99.90;;;;;;4160029;28;20309;-64
2023/02/17 00:23:18;;;;;;;60.17;28.70;;;-1.60;99.90;;;;;;4160688;28;20267;-66
2023/02/17 00:25:19;;;;;;;61.07;28.80;;;-1.60;99.90;;;;;;4161529;28;20674;-63
2023/02/17 00:27:21;;;;;;;64.60;29.70;;;-1.60;99.90;;;;;;4160597;28;20669;-64
2023/02/17 00:29:22;;;;;;;63.07;29.33;;;-1.60;99.90;;;;;;4160932;28;20298;-65
2023/02/17 00:31:23;;;;;;;59.13;27.83;;;-1.60;99.90;;;;;;4160795;28;20308;-64
2023/02/17 00:33:25;;;;;;;70.80;29.73;;;-1.60;99.90;;;;;;4160901;28;20802;-64
2023/02/17 00:35:26;;;;;;;75.03;32.53;;;-1.60;99.90;;;;;;4160979;28;20340;-63
2023/02/17 00:37:27;;;;;;;73.30;34.20;;;-1.70;99.90;;;;;;4160260;28;20286;-64
2023/02/17 00:39:28;;;;;;;73.27;33.67;;;-1.70;99.90;;;;;;4161443;28;20267;-63
2023/02/17 00:41:30;;;;;;;84.33;34.67;;;-1.70;99.90;;;;;;4160443;28;20270;-63
2023/02/17 00:43:31;;;;;;;79.83;34.37;;;-1.80;99.90;;;;;;4164266;28;20340;-64
2023/02/17 00:45:32;;;;;;;81.63;35.00;;;-1.80;99.90;;;;;;4163646;28;20816;-64
2023/02/17 00:47:33;;;;;;;76.27;34.50;;;-1.80;99.90;;;;;;4165013;28;21023;-68
2023/02/17 00:49:35;;;;;;;79.10;33.40;;;-1.80;99.90;;;;;;4163427;28;20259;-64
2023/02/17 00:51:37;;;;;;;83.13;35.83;;;-1.90;99.90;;;;;;4164889;28;20279;-64
2023/02/17 00:53:39;;;;;;;77.23;34.43;;;-2.00;99.90;;;;;;4163695;28;20263;-64
2023/02/17 00:55:40;;;;;;;69.03;32.57;;;-2.00;99.90;;;;;;4164465;28;20302;-64
2023/02/17 00:57:41;;;;;;;81.73;35.97;;;-2.00;99.90;;;;;;4163627;28;20316;-63
2023/02/17 00:59:42;;;;;;;79.47;35.47;;;-2.00;99.90;;;;;;4164371;28;20309;-64
2023/02/17 01:01:44;;;;;;;78.50;34.50;;;-2.00;99.90;;;;;;4163601;28;20275;-64
2023/02/17 01:03:45;;;;;;;78.00;33.90;;;-2.00;99.90;;;;;;4164461;28;20271;-64
2023/02/17 01:05:48;;;;;;;73.23;34.40;;;-2.00;99.90;;;;;;4163952;28;20313;-64
2023/02/17 01:07:49;;;;;;;82.80;35.03;;;-2.10;99.90;;;;;;4163720;28;20267;-64
2023/02/17 01:09:50;;;;;;;74.10;33.53;;;-2.10;99.90;;;;;;4164074;28;20275;-64
2023/02/17 01:11:51;;;;;;;75.80;35.17;;;-2.10;99.90;;;;;;4163135;28;20328;-63
2023/02/17 01:13:54;;;;;;;83.63;35.37;;;-2.10;99.90;;;;;;4164541;28;20321;-64
2023/02/17 01:15:55;;;;;;;75.17;35.37;;;-2.10;99.90;;;;;;4163032;28;20364;-63
2023/02/17 01:17:56;;;;;;;78.00;35.57;;;-2.10;99.90;;;;;;4164351;28;20662;-63
2023/02/17 01:19:57;;;;;;;81.57;36.40;;;-2.10;99.90;;;;;;4163325;28;20274;-64
2023/02/17 01:21:58;;;;;;;78.87;36.17;;;-2.20;99.90;;;;;;4163797;28;20278;-63
2023/02/17 01:24:02;;;;;;;84.33;35.77;;;-2.20;99.90;;;;;;4162554;28;20332;-64
2023/02/17 01:26:03;;;;;;;85.47;36.40;;;-2.30;99.90;;;;;;4164385;28;20316;-63
2023/02/17 01:28:05;;;;;;;75.13;35.87;;;-2.30;99.90;;;;;;4163132;28;20308;-64
2023/02/17 01:30:07;;;;;;;86.87;36.37;;;-2.40;99.90;;;;;;4164125;28;20271;-64
2023/02/17 01:32:08;;;;;;;86.83;36.30;;;-2.40;99.90;;;;;;4162531;28;20334;-63
2023/02/17 01:34:09;;;;;;;83.43;36.13;;;-2.40;99.90;;;;;;4163801;28;20337;-63
2023/02/17 01:36:13;;;;;;;83.83;37.50;;;-2.50;99.90;;;;;;4163119;28;20286;-63
2023/02/17 01:38:14;;;;;;;84.57;34.50;;;-2.50;99.90;;;;;;4163453;28;20738;-63
2023/02/17 01:40:16;;;;;;;80.47;36.90;;;-2.50;99.90;;;;;;4163781;28;20800;-66
2023/02/17 01:42:21;;;;;;;77.13;35.70;;;-2.50;99.90;;;;;;4162928;28;20312;-63
2023/02/17 01:44:24;;;;;;;83.10;36.03;;;-2.50;99.90;;;;;;4163177;28;20694;-63
2023/02/17 01:46:25;;;;;;;78.23;35.00;;;-2.50;99.90;;;;;;4161978;28;20270;-64
2023/02/17 01:48:29;;;;;;;77.07;34.73;;;-2.50;99.90;;;;;;4163891;28;20266;-63
2023/02/17 01:50:38;;;;;;;84.43;36.93;;;-2.40;99.90;;;;;;4162876;28;20313;-66
2023/02/17 01:52:40;;;;;;;82.83;36.20;;;-2.50;99.90;;;;;;4162866;28;20325;-64
2023/02/17 01:54:46;;;;;;;81.93;36.83;;;-2.50;99.90;;;;;;4161845;28;20321;-62
2023/02/17 01:56:49;;;;;;;82.47;35.67;;;-2.40;99.90;;;;;;4163718;28;20266;-63
2023/02/17 01:59:00;;;;;;;82.77;36.43;;;-2.40;99.90;;;;;;4162493;28;20266;-63
2023/02/17 02:01:03;;;;;;;84.25;36.60;;;-2.40;99.90;;;;;;4163611;28;20333;-64
2023/02/17 02:03:09;;;;;;;84.20;37.93;;;-2.40;99.90;;;;;;4162914;28;20025;-63
2023/02/17 02:05:11;;;;;;;88.97;35.57;;;-2.40;99.90;;;;;;4163743;28;20325;-64
2023/02/17 02:07:25;;;;;;;81.77;36.63;;;-2.40;99.90;;;;;;4161906;28;20267;-64
2023/02/17 02:09:39;;;;;;;78.30;36.83;;;-2.40;99.90;;;;;;4163145;28;20332;-65
2023/02/17 02:11:40;;;;;;;76.17;34.73;;;-2.40;99.90;;;;;;4162471;28;20250;-65
2023/02/17 02:13:42;;;;;;;79.93;35.63;;;-2.50;99.90;;;;;;4163623;28;20762;-66
2023/02/17 02:15:51;;;;;;;82.77;33.60;;;-2.40;99.90;;;;;;4162273;28;20349;-63
2023/02/17 02:18:16;;;;;;;73.67;34.13;;;-2.40;99.90;;;;;;4163301;28;20279;-64
2023/02/17 02:20:43;;;;;;;73.27;35.23;;;-2.40;99.90;;;;;;4162297;28;20321;-64
2023/02/17 02:22:53;;;;;;;86.63;38.83;;;-2.40;99.90;;;;;;4163112;28;20279;-64
2023/02/17 02:24:57;;;;;;;69.23;32.03;;;-2.40;99.90;;;;;;4162049;28;20283;-64
2023/02/17 02:26:58;;;;;;;62.87;29.77;;;-2.40;99.90;;;;;;4163269;28;20270;-65
2023/02/17 02:29:19;;;;;;;68.67;30.63;;;-2.40;99.90;;;;;;4162125;28;20263;-65
2023/02/17 02:31:41;;;;;;;67.38;33.17;;;-2.40;99.90;;;;;;4163177;28;20804;-64
2023/02/17 02:33:56;;;;;;;74.33;34.23;;;-2.40;99.90;;;;;;4162093;28;20034;-65
2023/02/17 02:36:22;;;;;;;76.90;36.37;;;-2.50;99.90;;;;;;4163154;28;20762;-64
2023/02/17 02:38:44;;;;;;;74.37;34.23;;;-2.50;99.90;;;;;;4162060;28;20743;-64
2023/02/17 02:40:51;;;;;;;65.43;32.20;;;-2.50;99.90;;;;;;4162970;28;20331;-64
2023/02/17 02:42:53;;;;;;;74.60;31.77;;;-2.50;99.90;;;;;;4162127;28;20797;-64
2023/02/17 02:44:55;;;;;;;72.57;32.03;;;-2.60;99.90;;;;;;4162564;28;20674;-64
2023/02/17 02:47:02;;;;;;;77.07;32.27;;;-2.60;99.90;;;;;;4161428;28;20654;-64
2023/02/17 02:49:04;;;;;;;74.17;34.57;;;-2.60;99.90;;;;;;4162350;28;20320;-64
2023/02/17 02:51:21;;;;;;;75.60;34.17;;;-2.70;99.90;;;;;;4161378;28;20267;-64
2023/02/17 02:53:40;;;;;;;71.90;34.13;;;-2.70;99.90;;;;;;4161675;28;20271;-72
2023/02/17 02:55:44;;;;;;;75.07;33.60;;;-2.60;99.90;;;;;;4161903;28;20282;-64
2023/02/17 02:57:54;;;;;;;74.47;34.73;;;-2.70;99.90;;;;;;4162737;28;20321;-64
2023/02/17 03:00:13;;;;;;;79.77;34.57;;;-2.70;99.90;;;;;;4161420;28;20349;-64
2023/02/17 03:02:51;;;;;;;77.60;34.17;;;-2.80;99.90;;;;;;4162515;28;20341;-64
2023/02/17 03:05:18;;;;;;;75.40;33.37;;;-2.80;99.90;;;;;;4161904;28;20352;-64
2023/02/17 03:07:33;;;;;;;81.03;34.33;;;-2.70;99.90;;;;;;4161590;28;20324;-67
2023/02/17 03:09:35;;;;;;;87.30;34.03;;;-2.70;99.90;;;;;;4162561;28;20314;-63
2023/02/17 03:11:36;;;;;;;81.83;35.70;;;-2.70;99.90;;;;;;4161573;28;20267;-62
2023/02/17 03:13:39;;;;;;;86.00;36.57;;;-2.70;99.90;;;;;;4162136;28;20266;-63
2023/02/17 03:15:41;;;;;;;79.73;34.83;;;-2.70;99.90;;;;;;4161716;28;20337;-62
2023/02/17 03:17:42;;;;;;;78.50;33.97;;;-2.70;99.90;;;;;;4161860;28;20317;-73
2023/02/17 03:19:46;;;;;;;80.17;35.77;;;-2.70;99.90;;;;;;4162408;28;20263;-65
2023/02/17 03:21:47;;;;;;;78.50;33.20;;;-2.70;99.90;;;;;;4160969;28;20317;-75
2023/02/17 03:23:48;;;;;;;74.70;34.10;;;-2.70;99.90;;;;;;4161869;28;20263;-76
2023/02/17 03:25:50;;;;;;;78.57;33.10;;;-2.60;99.90;;;;;;4161213;28;20293;-65
2023/02/17 03:27:51;;;;;;;76.73;33.50;;;-2.70;99.90;;;;;;4162353;28;20324;-69
2023/02/17 03:29:52;;;;;;;74.40;33.50;;;-2.70;99.90;;;;;;4161094;28;20368;-63
2023/02/17 03:31:53;;;;;;;76.37;35.10;;;-2.70;99.90;;;;;;4161269;28;20283;-63
2023/02/17 03:33:54;;;;;;;79.57;37.13;;;-2.70;99.90;;;;;;4161522;28;20275;-74
2023/02/17 03:35:56;;;;;;;73.17;33.53;;;-2.80;99.90;;;;;;4162103;28;20274;-63
2023/02/17 03:37:57;;;;;;;67.87;30.87;;;-2.80;99.90;;;;;;4160781;28;20274;-76
2023/02/17 03:39:58;;;;;;;73.97;32.77;;;-2.80;99.90;;;;;;4162127;28;20719;-63
2023/02/17 03:41:59;;;;;;;69.23;30.47;;;-2.80;99.90;;;;;;4160405;28;20747;-64
2023/02/17 03:44:00;;;;;;;68.37;30.23;;;-2.90;99.90;;;;;;4161044;28;20297;-76
2023/02/17 03:46:01;;;;;;;75.63;32.37;;;-2.80;99.90;;;;;;4160297;28;20281;-64
2023/02/17 03:48:03;;;;;;;72.00;31.03;;;-2.80;99.90;;;;;;4161277;28;20255;-73
2023/02/17 03:50:05;;;;;;;68.47;31.63;;;-2.90;99.90;;;;;;4161438;28;20267;-64
2023/02/17 03:52:06;;;;;;;69.30;31.00;;;-2.80;99.90;;;;;;4158437;28;20274;-65
2023/02/17 03:54:07;;;;;;;68.57;32.50;;;-2.80;99.90;;;;;;4160973;28;20816;-64
2023/02/17 03:56:09;;;;;;;67.60;32.33;;;-2.80;99.90;;;;;;4160797;28;20291;-74
2023/02/17 03:58:11;;;;;;;73.17;32.73;;;-2.80;99.90;;;;;;4161935;28;20333;-64
2023/02/17 04:00:12;;;;;;;69.10;31.67;;;-2.80;99.90;;;;;;4160117;28;20757;-63
2023/02/17 04:02:14;;;;;;;73.37;32.23;;;-2.80;99.90;;;;;;4161511;28;20765;-64
2023/02/17 04:04:15;;;;;;;66.10;31.20;;;-2.80;99.90;;;;;;4161176;28;20682;-64
2023/02/17 04:06:16;;;;;;;74.57;32.07;;;-2.80;99.90;;;;;;4161658;28;20647;-68
2023/02/17 04:08:17;;;;;;;65.07;28.80;;;-2.80;99.90;;;;;;4160686;28;20271;-63
2023/02/17 04:10:19;;;;;;;69.07;31.40;;;-2.80;99.90;;;;;;4161448;28;20824;-65
2023/02/17 04:12:21;;;;;;;73.30;32.53;;;-2.80;99.90;;;;;;4160740;28;20279;-64
2023/02/17 04:14:22;;;;;;;68.33;31.27;;;-2.80;99.90;;;;;;4161118;28;20344;-65
2023/02/17 04:16:23;;;;;;;70.40;31.90;;;-2.80;99.90;;;;;;4159692;28;20345;-64
2023/02/17 04:18:24;;;;;;;74.73;33.67;;;-2.80;99.90;;;;;;4160396;28;20329;-64
2023/02/17 04:20:26;;;;;;;77.07;31.93;;;-2.90;99.90;;;;;;4161123;28;20309;-63
2023/02/17 04:22:27;;;;;;;81.87;34.40;;;-2.80;99.90;;;;;;4160408;28;20754;-64
2023/02/17 04:24:28;;;;;;;75.03;31.40;;;-2.80;99.90;;;;;;4160979;28;20290;-63
2023/02/17 04:26:29;;;;;;;74.77;33.17;;;-2.80;99.90;;;;;;4160610;28;20305;-72
2023/02/17 04:28:30;;;;;;;72.37;33.30;;;-2.80;99.90;;;;;;4159963;28;20738;-64
2023/02/17 04:30:33;;;;;;;77.83;34.27;;;-2.90;99.90;;;;;;4159999;28;20274;-63
2023/02/17 04:32:34;;;;;;;73.43;32.73;;;-2.90;99.90;;;;;;4161389;28;20275;-63
2023/02/17 04:34:35;;;;;;;75.37;33.87;;;-2.90;99.90;;;;;;4160615;28;20263;-68
2023/02/17 04:36:36;;;;;;;71.87;32.00;;;-2.90;99.90;;;;;;4161410;28;20721;-73
2023/02/17 04:38:37;;;;;;;67.83;31.80;;;-2.90;99.90;;;;;;4160053;28;20755;-69
2023/02/17 04:40:40;;;;;;;73.57;31.53;;;-3.00;99.90;;;;;;4161612;28;20340;-64
2023/02/17 04:42:41;;;;;;;70.10;30.83;;;-3.00;99.90;;;;;;4159732;28;20262;-70
2023/02/17 04:44:42;;;;;;;78.37;32.27;;;-3.00;99.90;;;;;;4161216;28;20600;-64
2023/02/17 04:46:43;;;;;;;70.60;31.40;;;-3.00;99.90;;;;;;4160028;28;20275;-66
2023/02/17 04:48:44;;;;;;;71.47;31.93;;;-3.00;99.90;;;;;;4160610;28;20336;-64
2023/02/17 04:50:45;;;;;;;76.17;32.80;;;-3.00;99.90;;;;;;4160636;28;20301;-65
2023/02/17 04:52:47;;;;;;;76.90;34.03;;;-3.00;99.90;;;;;;4160341;28;20289;-65
2023/02/17 04:54:48;;;;;;;72.83;32.30;;;-3.00;99.90;;;;;;4159538;28;20274;-64
2023/02/17 04:56:49;;;;;;;70.97;30.23;;;-3.00;99.90;;;;;;4159655;28;20329;-62
2023/02/17 04:58:50;;;;;;;72.73;33.50;;;-2.90;99.90;;;;;;4160246;28;20798;-63
2023/02/17 05:00:51;;;;;;;79.77;34.57;;;-3.00;99.90;;;;;;4158677;28;20632;-63
2023/02/17 05:02:52;;;;;;;68.80;33.50;;;-3.00;99.90;;;;;;4161365;28;20259;-62
2023/02/17 05:04:54;;;;;;;76.57;34.10;;;-3.00;99.90;;;;;;4156671;28;20332;-63
2023/02/17 05:06:55;;;;;;;74.37;33.97;;;-3.00;99.90;;;;;;4159831;28;20341;-64
2023/02/17 05:08:56;;;;;;;79.40;35.40;;;-2.90;99.90;;;;;;4159438;28;20251;-64
2023/02/17 05:10:57;;;;;;;79.57;33.47;;;-3.00;99.90;;;;;;4160746;28;20275;-64
2023/02/17 05:12:58;;;;;;;73.33;32.90;;;-3.00;99.90;;;;;;4160069;28;20259;-65
2023/02/17 05:15:00;;;;;;;70.80;31.80;;;-3.00;99.90;;;;;;4160331;28;20325;-63
2023/02/17 05:17:01;;;;;;;75.10;34.47;;;-3.10;99.90;;;;;;4159817;28;20860;-63
2023/02/17 05:19:02;;;;;;;83.17;39.10;;;-3.10;99.90;;;;;;4160200;28;20337;-64
2023/02/17 05:21:03;;;;;;;69.17;31.43;;;-3.10;99.90;;;;;;4159902;28;20317;-63
2023/02/17 05:23:05;;;;;;;72.87;32.53;;;-3.10;99.90;;;;;;4158755;28;20282;-63
2023/02/17 05:25:06;;;;;;;78.37;33.83;;;-3.20;99.90;;;;;;4160661;28;20321;-63
2023/02/17 05:27:07;;;;;;;77.33;34.60;;;-3.20;99.90;;;;;;4159944;28;20271;-67
2023/02/17 05:29:09;;;;;;;80.27;34.17;;;-3.20;99.90;;;;;;4162980;28;20332;-63
2023/02/17 05:31:11;;;;;;;80.30;37.00;;;-3.20;99.90;;;;;;4162748;28;20302;-64
2023/02/17 05:33:12;;;;;;;76.17;35.60;;;-3.20;99.90;;;;;;4162304;28;20349;-63
2023/02/17 05:35:13;;;;;;;71.47;33.13;;;-3.10;99.90;;;;;;4162225;28;20348;-63
2023/02/17 05:37:14;;;;;;;79.60;35.33;;;-3.10;99.90;;;;;;4163204;28;20302;-62
2023/02/17 05:39:15;;;;;;;80.07;35.40;;;-3.10;99.90;;;;;;4161558;28;20669;-69
2023/02/17 05:41:17;;;;;;;82.10;35.73;;;-3.00;99.90;;;;;;4163787;28;20283;-61
2023/02/17 05:43:18;;;;;;;74.70;35.03;;;-3.00;99.90;;;;;;4162789;28;20278;-64
2023/02/17 05:45:20;;;;;;;88.27;38.40;;;-2.90;99.90;;;;;;4163062;28;20804;-63
2023/02/17 05:47:22;;;;;;;86.27;37.50;;;-2.90;99.90;;;;;;4162314;28;20698;-63
2023/02/17 05:49:23;;;;;;;86.47;38.87;;;-2.80;99.90;;;;;;4162516;28;20282;-63
2023/02/17 05:51:24;;;;;;;88.73;38.50;;;-2.60;99.90;;;;;;4162496;28;20620;-66
2023/02/17 05:53:25;;;;;;;82.17;36.90;;;-2.50;99.90;;;;;;4163258;28;20837;-64
2023/02/17 05:55:27;;;;;;;84.60;37.13;;;-2.40;99.90;;;;;;4163110;28;20332;-66
2023/02/17 05:57:29;;;;;;;82.93;37.13;;;-2.30;99.90;;;;;;4162028;28;20291;-73
2023/02/17 05:59:30;;;;;;;79.87;36.43;;;-2.30;99.90;;;;;;4162623;28;20681;-64
2023/02/17 06:01:31;;;;;;;82.20;36.57;;;-2.20;99.90;;;;;;4161957;28;20286;-64
2023/02/17 06:03:33;;;;;;;80.40;36.87;;;-2.10;99.90;;;;;;4163937;28;20744;-65
2023/02/17 06:05:34;;;;;;;88.17;37.67;;;-2.10;99.90;;;;;;4162443;28;20286;-67
2023/02/17 06:07:35;;;;;;;83.97;38.53;;;-1.90;99.90;;;;;;4163198;28;20357;-64
2023/02/17 06:09:36;;;;;;;86.23;38.03;;;-1.90;99.90;;;;;;4162008;28;20305;-65
2023/02/17 06:11:37;;;;;;;81.93;38.47;;;-1.70;99.90;;;;;;4163247;28;20267;-63
2023/02/17 06:13:38;;;;;;;82.57;39.50;;;-1.60;99.90;;;;;;4161930;28;20275;-64
2023/02/17 06:15:40;;;;;;;82.07;37.33;;;-1.50;99.90;;;;;;4162786;28;20271;-64
2023/02/17 06:17:41;;;;;;;82.00;37.67;;;-1.60;99.90;;;;;;4161976;28;20689;-63
2023/02/17 06:19:42;;;;;;;87.50;38.47;;;-1.70;99.90;;;;;;4162832;28;20323;-63
2023/02/17 06:21:43;;;;;;;90.30;39.47;;;-1.70;99.90;;;;;;4162203;28;20697;-64
2023/02/17 06:23:44;;;;;;;84.27;40.63;;;-1.80;99.90;;;;;;4161969;28;20279;-66
2023/02/17 06:25:46;;;;;;;80.73;38.50;;;-1.80;99.90;;;;;;4162708;28;20738;-65
2023/02/17 06:27:47;;;;;;;84.63;39.70;;;-1.80;99.90;;;;;;4161971;28;20714;-63
2023/02/17 06:29:48;;;;;;;82.40;39.50;;;-1.70;99.90;;;;;;4163077;28;20340;-63
2023/02/17 06:31:49;;;;;;;84.90;41.63;;;-1.40;99.90;;;;;;4161753;28;20293;-64
2023/02/17 06:33:50;;;;;;;89.50;41.90;;;-1.10;99.90;;;;;;4162983;28;20687;-64
2023/02/17 06:35:51;;;;;;;89.90;41.13;;;-1.00;99.90;;;;;;4161859;28;20681;-64
2023/02/17 06:37:52;;;;;;;82.63;39.10;;;-0.60;99.90;;;;;;4162725;28;20821;-63
2023/02/17 06:39:54;;;;;;;76.67;38.03;;;-0.60;99.90;;;;;;4160826;28;20266;-62
2023/02/17 06:41:55;;;;;;;81.27;38.97;;;-0.40;99.90;;;;;;4161029;28;20778;-63
2023/02/17 06:43:56;;;;;;;80.33;39.30;;;-0.20;99.90;;;;;;4161744;28;20341;-63
2023/02/17 06:45:57;;;;;;;81.27;39.67;;;-0.10;99.90;;;;;;4162447;28;20283;-64
2023/02/17 06:47:58;;;;;;;80.23;38.07;;;0.10;99.90;;;;;;4161787;28;20239;-63
2023/02/17 06:49:59;;;;;;;85.03;41.17;;;0.60;99.90;;;;;;4162164;28;20262;-71
2023/02/17 06:52:01;;;;;;;79.20;37.80;;;1.00;99.90;;;;;;4161889;28;20274;-63
2023/02/17 06:54:02;;;;;;;110.93;53.67;;;1.40;99.90;;;;;;4161785;28;20854;-65
2023/02/17 06:56:03;;;;;;;80.90;40.13;;;1.90;99.90;;;;;;4161828;28;20287;-70
2023/02/17 06:58:06;;;;;;;112.47;60.97;;;2.20;99.90;;;;;;4161360;28;20279;-69
2023/02/17 07:00:07;;;;;;;94.70;51.73;;;2.30;99.90;;;;;;4162270;28;20271;-63
2023/02/17 07:02:13;;;;;;;86.53;49.07;;;2.40;99.90;;;;;;4160919;28;20263;-63
2023/02/17 07:04:14;;;;;;;75.83;39.27;;;2.40;99.90;;;;;;4162317;28;20259;-63
2023/02/17 07:06:15;;;;;;;76.33;36.87;;;2.80;99.90;;;;;;4161352;28;20263;-63
2023/02/17 07:08:16;;;;;;;79.50;45.03;;;2.50;99.90;;;;;;4162260;28;20282;-63
2023/02/17 07:10:18;;;;;;;84.77;47.37;;;2.00;99.90;;;;;;4161293;28;20317;-63
2023/02/17 07:12:19;;;;;;;71.13;34.07;;;2.40;99.90;;;;;;4162550;28;20313;-63
2023/02/17 07:14:20;;;;;;;69.80;35.27;;;2.70;99.90;;;;;;4161022;28;20675;-63
2023/02/17 07:16:21;;;;;;;67.03;34.57;;;2.90;99.90;;;;;;4162378;28;20263;-64
2023/02/17 07:18:22;;;;;;;82.30;44.47;;;2.90;99.90;;;;;;4161208;28;20681;-70
2023/02/17 07:20:24;;;;;;;73.23;35.93;;;2.70;99.90;;;;;;4161867;28;20333;-65
2023/02/17 07:22:25;;;;;;;73.37;36.97;;;2.70;99.90;;;;;;4161130;28;20729;-64
2023/02/17 07:24:27;;;;;;;99.60;55.77;;;2.70;99.90;;;;;;4161640;28;20328;-65
2023/02/17 07:26:28;;;;;;;73.37;37.63;;;2.60;99.90;;;;;;4161155;28;20279;-64
2023/02/17 07:28:29;;;;;;;91.07;47.03;;;2.40;99.90;;;;;;4160677;28;20259;-65
2023/02/17 07:30:30;;;;;;;79.07;40.20;;;2.30;99.90;;;;;;4161636;28;20622;-63
2023/02/17 07:32:32;;;;;;;77.60;38.77;;;2.20;99.90;;;;;;4160983;28;20312;-63
2023/02/17 07:34:33;;;;;;;77.53;38.90;;;2.00;99.90;;;;;;4160881;28;20747;-63
2023/02/17 07:36:34;;;;;;;72.60;36.77;;;2.00;99.90;;;;;;4159035;28;20287;-63
2023/02/17 07:38:36;;;;;;;64.20;36.70;;;1.60;99.90;;;;;;4161929;28;20309;-65
2023/02/17 07:40:38;;;;;;;74.10;35.87;;;1.50;99.90;;;;;;4160792;28;20703;-63
2023/02/17 07:42:39;;;;;;;80.30;38.83;;;1.60;99.90;;;;;;4161771;28;20267;-63
2023/02/17 07:44:40;;;;;;;81.73;41.20;;;1.40;99.90;;;;;;4160429;28;20263;-64
2023/02/17 07:46:41;;;;;;;87.73;40.43;;;1.30;99.90;;;;;;4161681;28;20673;-63
2023/02/17 07:48:43;;;;;;;79.07;38.13;;;1.30;99.90;;;;;;4160566;28;20309;-65
2023/02/17 07:50:44;;;;;;;74.53;37.40;;;1.30;99.90;;;;;;4161298;28;20320;-65
2023/02/17 07:52:45;;;;;;;77.73;36.27;;;1.30;99.90;;;;;;4160810;28;20254;-64
2023/02/17 07:54:46;;;;;;;78.60;38.17;;;1.50;99.90;;;;;;4161179;28;20651;-65
2023/02/17 07:56:47;;;;;;;76.50;38.00;;;1.40;99.90;;;;;;4160925;28;20333;-69
2023/02/17 07:58:49;;;;;;;74.27;38.87;;;1.40;99.90;;;;;;4160684;28;20340;-63
2023/02/17 08:00:50;;;;;;;81.87;39.30;;;1.40;99.90;;;;;;4161164;28;20328;-70
2023/02/17 08:02:51;;;;;;;82.20;40.43;;;1.40;99.90;;;;;;4160425;28;20271;-64
2023/02/17 08:04:55;;;;;;;87.57;43.40;;;1.50;99.90;;;;;;4693695;22;21318;-63
2023/02/17 08:06:56;;;;;;;80.30;39.97;;;1.80;99.90;;;;;;4144449;28;20287;-64
2023/02/17 08:13:36;;;;;;;80.80;40.23;;;2.00;99.90;;;;;;4144467;28;20346;-64
2023/02/17 08:15:37;;;;;;;82.93;41.50;;;1.80;99.90;;;;;;4144650;28;20260;-64
2023/02/17 08:17:39;;;;;;;86.43;39.53;;;1.70;99.90;;;;;;4143884;28;20702;-66
2023/02/17 08:19:40;;;;;;;100.47;55.37;;;1.70;99.90;;;;;;4144963;28;20819;-70
2023/02/17 08:21:41;;;;;;;97.27;51.20;;;1.70;99.90;;;;;;4143783;28;20304;-65
2023/02/17 08:23:42;;;;;;;92.60;49.33;;;1.90;99.90;;;;;;4144904;28;20275;-63
2023/02/17 08:25:43;;;;;;;77.03;41.10;;;2.10;99.90;;;;;;4143548;28;20604;-63
2023/02/17 08:27:44;;;;;;;81.03;40.33;;;2.30;99.90;;;;;;4144777;28;20761;-64
2023/02/17 08:29:45;;;;;;;87.07;42.57;;;2.70;99.90;;;;;;4143581;28;20700;-63
2023/02/17 08:31:51;;;;;;;89.63;42.60;;;3.00;99.90;;;;;;4144876;28;20674;-68
2023/02/17 08:33:53;;;;;;;86.63;41.80;;;3.30;99.90;;;;;;4143815;28;20319;-69
2023/02/17 08:35:54;;;;;;;80.87;41.90;;;3.60;99.90;;;;;;4144478;28;20280;-73
2023/02/17 08:37:55;;;;;;;83.93;41.80;;;3.60;99.90;;;;;;4143740;28;20357;-64
2023/02/17 08:39:58;;;;;;;77.77;38.30;;;3.50;99.90;;;;;;4144339;28;20334;-65
2023/02/17 08:41:59;;;;;;;80.87;38.90;;;3.50;99.90;;;;;;4143880;28;20707;-63
2023/02/17 08:44:02;;;;;;;78.30;39.83;;;3.40;99.90;;;;;;4142900;28;20747;-64
2023/02/17 08:46:07;;;;;;;87.10;42.20;;;3.80;99.90;;;;;;4143972;28;20820;-64
2023/02/17 08:48:08;;;;;;;80.23;36.10;;;4.00;99.90;;;;;;4143792;28;20747;-64
2023/02/17 08:50:14;;;;;;;74.00;37.87;;;4.10;99.90;;;;;;4144373;28;20275;-63
2023/02/17 08:52:15;;;;;;;72.70;36.50;;;4.40;99.90;;;;;;4143477;28;20259;-63
2023/02/17 08:54:17;;;;;;;70.47;34.20;;;4.90;99.90;;;;;;4144792;28;20268;-64
2023/02/17 08:56:18;;;;;;;66.73;33.13;;;5.00;99.90;;;;;;4143592;28;20755;-65
2023/02/17 08:58:20;;;;;;;62.33;33.57;;;4.90;99.90;;;;;;4144491;28;20303;-64
2023/02/17 09:00:21;;;;;;;69.00;35.60;;;4.90;99.90;;;;;;4143450;28;20267;-64
2023/02/17 09:02:22;;;;;;;62.20;33.80;;;4.60;99.90;;;;;;4145233;28;20305;-63
2023/02/17 09:04:23;;;;;;;69.60;33.67;;;4.50;99.90;;;;;;4146804;28;20761;-64
2023/02/17 09:06:40;;;;;;;76.10;35.67;;;4.30;99.90;;;;;;4147632;28;20295;-63
2023/02/17 09:08:43;;;;;;;85.27;34.33;;;4.50;99.90;;;;;;4146634;28;20318;-64
2023/02/17 09:10:44;;;;;;;87.33;33.53;;;4.40;99.90;;;;;;4147670;28;20267;-68
2023/02/17 09:12:45;;;;;;;92.63;34.77;;;4.20;99.90;;;;;;4146696;28;20774;-65
2023/02/17 09:14:46;;;;;;;90.60;32.83;;;4.00;99.90;;;;;;4147562;28;20395;-64
2023/02/17 09:16:47;;;;;;;87.07;32.97;;;3.90;99.90;;;;;;4146350;28;20651;-63
2023/02/17 09:18:48;;;;;;;74.93;29.43;;;3.90;99.90;;;;;;4147318;28;20317;-64
2023/02/17 09:20:50;;;;;;;64.10;26.23;;;3.70;99.90;;;;;;4146776;28;20378;-72
2023/02/17 09:22:51;;;;;;;63.73;27.63;;;3.70;99.90;;;;;;4146822;28;20276;-71
2023/02/17 09:24:52;;;;;;;58.47;26.03;;;3.70;99.90;;;;;;4147370;28;20267;-68
2023/02/17 09:26:53;;;;;;;78.80;31.30;;;3.70;99.90;;;;;;4146236;28;20848;-65
2023/02/17 09:28:56;;;;;;;54.67;26.40;;;4.00;99.90;;;;;;4147351;28;20355;-68
2023/02/17 09:30:58;;;;;;;54.33;24.20;;;4.10;99.90;;;;;;4145961;28;20271;-64
2023/02/17 09:32:59;;;;;;;56.80;25.27;;;4.20;99.90;;;;;;4147091;28;20341;-65
2023/02/17 09:35:04;;;;;;;55.40;26.80;;;4.10;99.90;;;;;;4146111;28;20318;-63
2023/02/17 09:37:12;;;;;;;58.10;24.63;;;4.10;99.90;;;;;;4147153;28;20358;-64
2023/02/17 09:39:13;;;;;;;52.67;24.27;;;4.20;99.90;;;;;;4146281;28;20271;-64
2023/02/17 09:41:16;;;;;;;51.30;23.27;;;4.10;99.90;;;;;;4147349;28;20727;-64
2023/02/17 09:43:27;;;;;;;58.33;25.37;;;4.10;99.90;;;;;;4145954;28;20314;-63
2023/02/17 09:45:34;;;;;;;54.30;23.65;;;4.10;99.90;;;;;;4147136;28;21137;-64
2023/02/17 09:47:42;;;;;;;53.83;24.03;;;4.20;99.90;;;;;;4146138;28;20509;-63
2023/02/17 09:50:12;;;;;;;58.03;24.13;;;4.10;99.90;;;;;;4146991;28;20256;-63
2023/02/17 09:52:27;;;;;;;54.35;23.40;;;4.10;99.90;;;;;;4144363;28;20321;-63
2023/02/17 09:54:47;;;;;;;47.77;22.83;;;4.10;99.90;;;;;;4147165;28;20038;-63
2023/02/17 09:56:51;;;;;;;52.73;22.33;;;4.20;99.90;;;;;;4145789;28;20721;-75
2023/02/17 09:58:57;;;;;;;58.03;24.50;;;4.20;99.90;;;;;;4146882;28;20714;-64
2023/02/17 10:01:03;;;;;;;55.47;22.43;;;4.30;99.90;;;;;;4145876;28;20742;-72
2023/02/17 10:03:10;;;;;;;48.53;22.07;;;4.40;99.90;;;;;;4147106;28;20259;-65
2023/02/17 10:05:17;;;;;;;49.27;22.77;;;4.30;99.90;;;;;;4145717;28;20268;-73
2023/02/17 10:07:53;;;;;;;53.43;23.97;;;4.30;99.90;;;;;;4146967;28;20279;-70
2023/02/17 10:10:08;;;;;;;50.50;23.20;;;4.50;99.90;;;;;;4144313;28;20338;-65
2023/02/17 10:12:25;;;;;;;45.63;22.53;;;4.50;99.90;;;;;;4146505;28;20283;-74
2023/02/17 10:14:35;;;;;;;50.97;24.50;;;4.70;99.90;;;;;;4144378;28;20382;-69
2023/02/17 10:16:44;;;;;;;51.75;26.77;;;4.70;99.90;;;;;;4146496;28;20271;-69
2023/02/17 10:19:09;;;;;;;50.13;25.53;;;4.70;99.90;;;;;;4145282;28;20062;-73
2023/02/17 10:21:18;;;;;;;51.63;25.97;;;4.80;99.90;;;;;;4145955;28;20284;-65
2023/02/17 10:23:21;;;;;;;54.57;27.73;;;4.90;99.90;;;;;;4145880;28;20641;-75
2023/02/17 10:25:42;;;;;;;49.73;25.97;;;5.00;99.90;;;;;;4146428;28;20279;-64
2023/02/17 10:28:10;;;;;;;65.55;25.40;;;5.20;99.90;;;;;;4145847;28;20092;-66
2023/02/17 10:30:25;;;;;;;47.83;25.40;;;5.20;99.90;;;;;;4145362;28;20506;-64
2023/02/17 10:32:27;;;;;;;51.80;26.60;;;5.30;99.90;;;;;;4144743;28;20777;-74
2023/02/17 10:34:28;;;;;;;42.60;23.70;;;5.30;99.90;;;;;;4145915;28;20468;-74